sensor_id;sensor_type;location;lat;lon;timestamp;temperature;humidity
20858;DHT22;10589;53.636;10.012;2023-05-10T03:46:19;11.40;99.90
20858;DHT22;10589;53.636;10.012;2023-05-10T03:48:44;11.40;99.90
20858;DHT22;10589;53.636;10.012;2023-05-10T03:51:10;11.50;99.90
20858;DHT22;10589;53.636;10.012;2023-05-10T03:53:36;11.40;99.90
20858;DHT22;10589;53.636;10.012;2023-05-10T03:56:01;11.40;99.90
20858;DHT22;10589;53.636;10.012;2023-05-10T03:58:27;11.50;99.90
20858;DHT22;10589;53.636;10.012;2023-05-10T04:00:53;11.50;99.90
20858;DHT22;10589;53.636;10.012;2023-05-10T04:03:18;11.50;99.90
20858;DHT22;10589;53.636;10.012;2023-05-10T04:05:45;11.50;99.90
20858;DHT22;10589;53.636;10.012;2023-05-10T04:08:11;11.50;99.90
20858;DHT22;10589;53.636;10.012;2023-05-10T04:10:36;11.60;99.90
20858;DHT22;10589;53.636;10.012;2023-05-10T04:13:02;11.60;99.90
20858;DHT22;10589;53.636;10.012;2023-05-10T04:15:27;11.60;99.90
20858;DHT22;10589;53.636;10.012;2023-05-10T04:17:53;11.60;99.90
20858;DHT22;10589;53.636;10.012;2023-05-10T04:20:19;11.60;99.90
20858;DHT22;10589;53.636;10.012;2023-05-10T04:22:44;11.70;99.90
20858;DHT22;10589;53.636;10.012;2023-05-10T04:25:10;11.70;99.90
20858;DHT22;10589;53.636;10.012;2023-05-10T04:27:36;11.70;99.90
20858;DHT22;10589;53.636;10.012;2023-05-10T04:30:01;11.70;99.90
20858;DHT22;10589;53.636;10.012;2023-05-10T04:32:27;11.80;99.90
20858;DHT22;10589;53.636;10.012;2023-05-10T04:34:53;11.80;99.90
20858;DHT22;10589;53.636;10.012;2023-05-10T04:37:19;11.80;99.90
20858;DHT22;10589;53.636;10.012;2023-05-10T04:39:45;11.80;99.90
20858;DHT22;10589;53.636;10.012;2023-05-10T04:42:10;11.80;99.90
20858;DHT22;10589;53.636;10.012;2023-05-10T04:44:37;11.80;99.90
20858;DHT22;10589;53.636;10.012;2023-05-10T04:47:02;11.90;99.90
20858;DHT22;10589;53.636;10.012;2023-05-10T04:49:29;11.90;99.90
20858;DHT22;10589;53.636;10.012;2023-05-10T04:51:55;11.90;99.90
20858;DHT22;10589;53.636;10.012;2023-05-10T04:54:21;12.00;99.90
20858;DHT22;10589;53.636;10.012;2023-05-10T04:56:46;12.00;99.90
20858;DHT22;10589;53.636;10.012;2023-05-10T04:59:12;12.00;99.90
20858;DHT22;10589;53.636;10.012;2023-05-10T05:01:37;12.10;99.90
20858;DHT22;10589;53.636;10.012;2023-05-10T05:04:03;12.10;99.90
20858;DHT22;10589;53.636;10.012;2023-05-10T05:06:29;12.10;99.90
20858;DHT22;10589;53.636;10.012;2023-05-10T05:08:55;12.30;99.90
20858;DHT22;10589;53.636;10.012;2023-05-10T05:11:20;12.30;99.90
20858;DHT22;10589;53.636;10.012;2023-05-10T05:13:46;12.40;99.90
20858;DHT22;10589;53.636;10.012;2023-05-10T05:16:12;12.40;99.90
20858;DHT22;10589;53.636;10.012;2023-05-10T05:18:37;12.60;99.90
20858;DHT22;10589;53.636;10.012;2023-05-10T05:21:03;12.60;99.90
20858;DHT22;10589;53.636;10.012;2023-05-10T05:23:28;12.70;99.90
20858;DHT22;10589;53.636;10.012;2023-05-10T05:25:54;12.70;99.90
20858;DHT22;10589;53.636;10.012;2023-05-10T05:28:20;12.80;99.90
20858;DHT22;10589;53.636;10.012;2023-05-10T05:30:46;12.90;99.90
20858;DHT22;10589;53.636;10.012;2023-05-10T05:33:13;12.90;99.90
20858;DHT22;10589;53.636;10.012;2023-05-10T05:35:40;13.00;99.90
20858;DHT22;10589;53.636;10.012;2023-05-10T05:38:06;13.00;99.90
20858;DHT22;10589;53.636;10.012;2023-05-10T05:40:32;13.10;99.90
20858;DHT22;10589;53.636;10.012;2023-05-10T05:42:57;13.20;99.90
20858;DHT22;10589;53.636;10.012;2023-05-10T05:45:23;13.30;99.90
20858;DHT22;10589;53.636;10.012;2023-05-10T05:47:48;13.40;99.90
20858;DHT22;10589;53.636;10.012;2023-05-10T05:50:14;13.50;99.90
20858;DHT22;10589;53.636;10.012;2023-05-10T05:52:40;13.60;99.90
20858;DHT22;10589;53.636;10.012;2023-05-10T05:55:05;13.60;99.90
20858;DHT22;10589;53.636;10.012;2023-05-10T05:57:31;13.80;99.90
20858;DHT22;10589;53.636;10.012;2023-05-10T05:59:57;13.80;99.90
20858;DHT22;10589;53.636;10.012;2023-05-10T06:02:22;14.00;99.90
20858;DHT22;10589;53.636;10.012;2023-05-10T06:04:48;14.00;99.90
20858;DHT22;10589;53.636;10.012;2023-05-10T06:07:13;14.10;99.90
20858;DHT22;10589;53.636;10.012;2023-05-10T06:09:39;14.10;99.90
20858;DHT22;10589;53.636;10.012;2023-05-10T06:12:05;14.10;99.90
20858;DHT22;10589;53.636;10.012;2023-05-10T06:14:30;14.20;99.90
20858;DHT22;10589;53.636;10.012;2023-05-10T06:16:56;14.30;99.90
20858;DHT22;10589;53.636;10.012;2023-05-10T06:19:22;14.40;99.90
20858;DHT22;10589;53.636;10.012;2023-05-10T06:21:47;14.60;99.90
20858;DHT22;10589;53.636;10.012;2023-05-10T06:24:13;14.70;99.90
20858;DHT22;10589;53.636;10.012;2023-05-10T06:26:39;14.80;99.90
20858;DHT22;10589;53.636;10.012;2023-05-10T06:29:04;15.00;99.90
20858;DHT22;10589;53.636;10.012;2023-05-10T06:31:30;15.10;99.90
20858;DHT22;10589;53.636;10.012;2023-05-10T06:33:55;15.20;99.90
20858;DHT22;10589;53.636;10.012;2023-05-10T06:36:21;15.30;99.90
20858;DHT22;10589;53.636;10.012;2023-05-10T06:38:47;15.30;99.90
20858;DHT22;10589;53.636;10.012;2023-05-10T06:41:13;15.30;99.90
20858;DHT22;10589;53.636;10.012;2023-05-10T06:43:38;15.20;99.90
20858;DHT22;10589;53.636;10.012;2023-05-10T06:46:06;15.30;99.90
20858;DHT22;10589;53.636;10.012;2023-05-10T06:48:32;15.30;99.90
20858;DHT22;10589;53.636;10.012;2023-05-10T06:50:58;15.30;99.90
20858;DHT22;10589;53.636;10.012;2023-05-10T06:53:23;15.50;99.90
20858;DHT22;10589;53.636;10.012;2023-05-10T06:55:49;15.40;99.90
20858;DHT22;10589;53.636;10.012;2023-05-10T06:58:15;15.20;99.90
20858;DHT22;10589;53.636;10.012;2023-05-10T07:00:41;15.20;99.90
20858;DHT22;10589;53.636;10.012;2023-05-10T07:03:09;15.20;99.90
20858;DHT22;10589;53.636;10.012;2023-05-10T07:05:36;15.20;99.90
20858;DHT22;10589;53.636;10.012;2023-05-10T07:08:01;15.60;99.90
20858;DHT22;10589;53.636;10.012;2023-05-10T07:10:27;15.80;99.90
20858;DHT22;10589;53.636;10.012;2023-05-10T07:12:52;15.90;99.90
20858;DHT22;10589;53.636;10.012;2023-05-10T07:15:18;16.00;99.90
20858;DHT22;10589;53.636;10.012;2023-05-10T07:17:44;16.00;99.90
20858;DHT22;10589;53.636;10.012;2023-05-10T07:20:11;16.10;99.90
20858;DHT22;10589;53.636;10.012;2023-05-10T07:22:36;16.10;99.90
20858;DHT22;10589;53.636;10.012;2023-05-10T07:25:02;16.10;99.90
20858;DHT22;10589;53.636;10.012;2023-05-10T07:27:28;15.90;99.90
20858;DHT22;10589;53.636;10.012;2023-05-10T07:29:53;16.00;99.90
20858;DHT22;10589;53.636;10.012;2023-05-10T07:32:20;16.30;99.90
20858;DHT22;10589;53.636;10.012;2023-05-10T07:34:46;16.50;99.90
20858;DHT22;10589;53.636;10.012;2023-05-10T07:37:12;16.60;99.90
20858;DHT22;10589;53.636;10.012;2023-05-10T07:39:37;16.40;99.90
20858;DHT22;10589;53.636;10.012;2023-05-10T07:42:03;16.70;99.90
20858;DHT22;10589;53.636;10.012;2023-05-10T07:44:29;16.70;99.90
20858;DHT22;10589;53.636;10.012;2023-05-10T07:46:54;16.70;99.90
20858;DHT22;10589;53.636;10.012;2023-05-10T07:49:22;16.70;99.90
20858;DHT22;10589;53.636;10.012;2023-05-10T07:51:49;16.80;99.90
20858;DHT22;10589;53.636;10.012;2023-05-10T07:54:15;16.70;99.90
20858;DHT22;10589;53.636;10.012;2023-05-10T07:56:41;16.60;99.90
20858;DHT22;10589;53.636;10.012;2023-05-10T07:59:15;16.60;99.90
20858;DHT22;10589;53.636;10.012;2023-05-10T08:01:50;16.50;99.90
20858;DHT22;10589;53.636;10.012;2023-05-10T08:04:15;16.60;99.90
20858;DHT22;10589;53.636;10.012;2023-05-10T08:06:41;16.50;99.90
20858;DHT22;10589;53.636;10.012;2023-05-10T08:09:08;16.70;99.90
20858;DHT22;10589;53.636;10.012;2023-05-10T08:11:34;16.60;99.90
20858;DHT22;10589;53.636;10.012;2023-05-10T08:14:00;16.60;99.90
20858;DHT22;10589;53.636;10.012;2023-05-10T08:16:26;17.00;99.90
20858;DHT22;10589;53.636;10.012;2023-05-10T08:18:51;17.20;99.90
20858;DHT22;10589;53.636;10.012;2023-05-10T08:21:17;17.30;99.90
20858;DHT22;10589;53.636;10.012;2023-05-10T08:23:42;17.30;99.90
20858;DHT22;10589;53.636;10.012;2023-05-10T08:26:09;17.30;99.90
20858;DHT22;10589;53.636;10.012;2023-05-10T08:28:35;17.40;99.90
20858;DHT22;10589;53.636;10.012;2023-05-10T08:31:00;17.60;99.90
20858;DHT22;10589;53.636;10.012;2023-05-10T08:33:26;17.70;99.90
20858;DHT22;10589;53.636;10.012;2023-05-10T08:35:51;17.70;99.90
20858;DHT22;10589;53.636;10.012;2023-05-10T08:38:18;17.60;99.90
20858;DHT22;10589;53.636;10.012;2023-05-10T08:40:44;17.50;99.90
20858;DHT22;10589;53.636;10.012;2023-05-10T08:43:12;17.40;99.90
20858;DHT22;10589;53.636;10.012;2023-05-10T08:45:45;17.30;99.90
20858;DHT22;10589;53.636;10.012;2023-05-10T08:48:12;17.30;99.90
20858;DHT22;10589;53.636;10.012;2023-05-10T08:50:39;17.30;99.90
20858;DHT22;10589;53.636;10.012;2023-05-10T08:53:09;17.30;99.90
20858;DHT22;10589;53.636;10.012;2023-05-10T08:55:36;17.20;99.90
20858;DHT22;10589;53.636;10.012;2023-05-10T08:58:04;17.20;99.90
20858;DHT22;10589;53.636;10.012;2023-05-10T09:00:30;17.30;99.90
20858;DHT22;10589;53.636;10.012;2023-05-10T09:02:58;17.50;99.90
20858;DHT22;10589;53.636;10.012;2023-05-10T09:05:23;17.40;99.90
20858;DHT22;10589;53.636;10.012;2023-05-10T09:07:49;17.50;99.90
20858;DHT22;10589;53.636;10.012;2023-05-10T09:10:15;17.50;99.90
20858;DHT22;10589;53.636;10.012;2023-05-10T09:12:41;17.70;99.90
20858;DHT22;10589;53.636;10.012;2023-05-10T09:15:07;17.80;99.90
20858;DHT22;10589;53.636;10.012;2023-05-10T09:17:34;18.10;99.90
20858;DHT22;10589;53.636;10.012;2023-05-10T09:20:01;18.30;99.90
20858;DHT22;10589;53.636;10.012;2023-05-10T09:22:30;18.30;99.90
20858;DHT22;10589;53.636;10.012;2023-05-10T09:25:10;18.60;99.90
20858;DHT22;10589;53.636;10.012;2023-05-10T09:27:38;18.70;99.90
20858;DHT22;10589;53.636;10.012;2023-05-10T09:30:04;18.50;99.90
20858;DHT22;10589;53.636;10.012;2023-05-10T09:32:41;18.30;99.90
20858;DHT22;10589;53.636;10.012;2023-05-10T09:37:38;18.00;99.90
20858;DHT22;10589;53.636;10.012;2023-05-10T09:40:06;17.90;99.90
20858;DHT22;10589;53.636;10.012;2023-05-10T09:42:33;18.00;99.90
20858;DHT22;10589;53.636;10.012;2023-05-10T09:45:05;18.10;99.90
20858;DHT22;10589;53.636;10.012;2023-05-10T09:47:34;17.80;99.90
20858;DHT22;10589;53.636;10.012;2023-05-10T09:50:02;17.50;99.90
20858;DHT22;10589;53.636;10.012;2023-05-10T09:52:30;17.50;99.90
20858;DHT22;10589;53.636;10.012;2023-05-10T09:54:56;17.30;99.90
20858;DHT22;10589;53.636;10.012;2023-05-10T09:57:23;17.30;99.90
20858;DHT22;10589;53.636;10.012;2023-05-10T09:59:49;17.40;99.90
20858;DHT22;10589;53.636;10.012;2023-05-10T10:02:16;17.50;99.90
20858;DHT22;10589;53.636;10.012;2023-05-10T10:04:42;17.70;99.90
20858;DHT22;10589;53.636;10.012;2023-05-10T10:07:08;17.80;99.90
20858;DHT22;10589;53.636;10.012;2023-05-10T10:09:34;17.80;99.90
20858;DHT22;10589;53.636;10.012;2023-05-10T10:12:03;17.70;99.90
20858;DHT22;10589;53.636;10.012;2023-05-10T10:14:30;17.40;99.90
20858;DHT22;10589;53.636;10.012;2023-05-10T10:16:56;17.00;99.90
20858;DHT22;10589;53.636;10.012;2023-05-10T10:19:22;16.60;99.90
20858;DHT22;10589;53.636;10.012;2023-05-10T10:21:49;16.40;99.90
20858;DHT22;10589;53.636;10.012;2023-05-10T10:24:15;16.00;99.90
20858;DHT22;10589;53.636;10.012;2023-05-10T10:26:42;15.70;99.90
20858;DHT22;10589;53.636;10.012;2023-05-10T10:29:24;15.50;99.90
20858;DHT22;10589;53.636;10.012;2023-05-10T10:34:33;15.20;99.90
20858;DHT22;10589;53.636;10.012;2023-05-10T10:37:04;15.20;99.90
20858;DHT22;10589;53.636;10.012;2023-05-10T10:39:30;15.10;99.90
20858;DHT22;10589;53.636;10.012;2023-05-10T10:41:57;15.10;99.90
20858;DHT22;10589;53.636;10.012;2023-05-10T10:44:32;15.00;99.90
20858;DHT22;10589;53.636;10.012;2023-05-10T10:49:52;14.70;99.90
20858;DHT22;10589;53.636;10.012;2023-05-10T10:52:35;14.80;99.90
20858;DHT22;10589;53.636;10.012;2023-05-10T11:00:22;14.70;99.90
20858;DHT22;10589;53.636;10.012;2023-05-10T11:05:48;14.70;99.90
20858;DHT22;10589;53.636;10.012;2023-05-10T11:08:16;14.80;99.90
20858;DHT22;10589;53.636;10.012;2023-05-10T11:13:39;14.60;99.90
20858;DHT22;10589;53.636;10.012;2023-05-10T11:16:24;14.60;99.90
20858;DHT22;10589;53.636;10.012;2023-05-10T11:19:04;14.50;99.90
20858;DHT22;10589;53.636;10.012;2023-05-10T11:21:31;14.60;99.90
20858;DHT22;10589;53.636;10.012;2023-05-10T11:23:58;14.70;99.90
20858;DHT22;10589;53.636;10.012;2023-05-10T11:26:25;14.70;99.90
20858;DHT22;10589;53.636;10.012;2023-05-10T11:28:53;14.60;99.90
20858;DHT22;10589;53.636;10.012;2023-05-10T11:31:23;14.70;99.90
20858;DHT22;10589;53.636;10.012;2023-05-10T11:33:56;14.80;99.90
20858;DHT22;10589;53.636;10.012;2023-05-10T11:36:26;14.80;99.90
20858;DHT22;10589;53.636;10.012;2023-05-10T11:38:53;14.80;99.90
20858;DHT22;10589;53.636;10.012;2023-05-10T11:41:19;14.80;99.90
20858;DHT22;10589;53.636;10.012;2023-05-10T11:43:52;14.80;99.90
20858;DHT22;10589;53.636;10.012;2023-05-10T11:46:21;14.80;99.90
20858;DHT22;10589;53.636;10.012;2023-05-10T11:48:49;15.00;99.90
20858;DHT22;10589;53.636;10.012;2023-05-10T11:51:15;15.20;99.90
20858;DHT22;10589;53.636;10.012;2023-05-10T11:53:45;15.30;99.90
20858;DHT22;10589;53.636;10.012;2023-05-10T11:56:11;15.40;99.90
20858;DHT22;10589;53.636;10.012;2023-05-10T11:58:38;15.30;99.90
20858;DHT22;10589;53.636;10.012;2023-05-10T12:01:06;15.30;99.90
20858;DHT22;10589;53.636;10.012;2023-05-10T12:03:32;15.30;99.90
20858;DHT22;10589;53.636;10.012;2023-05-10T12:05:59;15.30;99.90
20858;DHT22;10589;53.636;10.012;2023-05-10T12:08:26;15.30;99.90
20858;DHT22;10589;53.636;10.012;2023-05-10T12:10:53;15.20;99.90
20858;DHT22;10589;53.636;10.012;2023-05-10T12:13:20;15.30;99.90
20858;DHT22;10589;53.636;10.012;2023-05-10T12:15:46;15.40;99.90
20858;DHT22;10589;53.636;10.012;2023-05-10T12:18:13;15.30;99.90
20858;DHT22;10589;53.636;10.012;2023-05-10T12:20:40;15.30;99.90
20858;DHT22;10589;53.636;10.012;2023-05-10T12:23:08;15.20;99.90
20858;DHT22;10589;53.636;10.012;2023-05-10T12:25:36;15.20;99.90
20858;DHT22;10589;53.636;10.012;2023-05-10T12:28:09;15.10;99.90
20858;DHT22;10589;53.636;10.012;2023-05-10T12:30:37;15.20;99.90
20858;DHT22;10589;53.636;10.012;2023-05-10T12:33:07;15.20;99.90
20858;DHT22;10589;53.636;10.012;2023-05-10T12:35:47;15.30;99.90
20858;DHT22;10589;53.636;10.012;2023-05-10T12:38:39;15.30;99.90
20858;DHT22;10589;53.636;10.012;2023-05-10T12:41:10;15.30;99.90
20858;DHT22;10589;53.636;10.012;2023-05-10T12:43:36;15.50;99.90
20858;DHT22;10589;53.636;10.012;2023-05-10T12:46:28;15.70;99.90
20858;DHT22;10589;53.636;10.012;2023-05-10T12:48:54;15.90;99.90
20858;DHT22;10589;53.636;10.012;2023-05-10T12:51:21;15.80;99.90
20858;DHT22;10589;53.636;10.012;2023-05-10T12:53:47;16.00;99.90
20858;DHT22;10589;53.636;10.012;2023-05-10T12:56:13;16.20;99.90
20858;DHT22;10589;53.636;10.012;2023-05-10T12:58:39;16.20;99.90
20858;DHT22;10589;53.636;10.012;2023-05-10T13:01:05;16.40;99.90
20858;DHT22;10589;53.636;10.012;2023-05-10T13:03:31;16.50;99.90
20858;DHT22;10589;53.636;10.012;2023-05-10T13:05:56;16.70;99.90
20858;DHT22;10589;53.636;10.012;2023-05-10T13:08:22;16.70;99.90
20858;DHT22;10589;53.636;10.012;2023-05-10T13:10:48;16.90;99.90
20858;DHT22;10589;53.636;10.012;2023-05-10T13:13:14;17.50;99.90
20858;DHT22;10589;53.636;10.012;2023-05-10T13:15:39;17.50;99.90
20858;DHT22;10589;53.636;10.012;2023-05-10T13:18:05;17.60;99.90
20858;DHT22;10589;53.636;10.012;2023-05-10T13:20:30;17.30;99.90
20858;DHT22;10589;53.636;10.012;2023-05-10T13:22:56;17.10;99.90
20858;DHT22;10589;53.636;10.012;2023-05-10T13:25:22;17.10;99.90
20858;DHT22;10589;53.636;10.012;2023-05-10T13:27:47;17.10;99.90
20858;DHT22;10589;53.636;10.012;2023-05-10T13:30:13;17.40;99.90
20858;DHT22;10589;53.636;10.012;2023-05-10T13:32:38;17.40;99.90
20858;DHT22;10589;53.636;10.012;2023-05-10T13:35:05;17.70;99.90
20858;DHT22;10589;53.636;10.012;2023-05-10T13:37:31;17.50;99.90
20858;DHT22;10589;53.636;10.012;2023-05-10T13:39:57;17.50;99.90
20858;DHT22;10589;53.636;10.012;2023-05-10T13:42:23;17.70;99.90
20858;DHT22;10589;53.636;10.012;2023-05-10T13:44:49;17.70;99.90
20858;DHT22;10589;53.636;10.012;2023-05-10T13:47:15;17.70;99.90
20858;DHT22;10589;53.636;10.012;2023-05-10T13:49:41;18.10;99.90
20858;DHT22;10589;53.636;10.012;2023-05-10T13:52:07;17.90;99.90
20858;DHT22;10589;53.636;10.012;2023-05-10T13:54:37;17.90;99.90
20858;DHT22;10589;53.636;10.012;2023-05-10T13:57:03;17.90;99.90
20858;DHT22;10589;53.636;10.012;2023-05-10T13:59:30;17.80;99.90
20858;DHT22;10589;53.636;10.012;2023-05-10T14:01:57;17.60;99.90
20858;DHT22;10589;53.636;10.012;2023-05-10T14:04:23;17.90;99.90
20858;DHT22;10589;53.636;10.012;2023-05-10T14:06:48;17.80;99.90
20858;DHT22;10589;53.636;10.012;2023-05-10T14:09:14;17.70;99.90
20858;DHT22;10589;53.636;10.012;2023-05-10T14:11:39;18.00;99.90
20858;DHT22;10589;53.636;10.012;2023-05-10T14:14:09;18.10;99.90
20858;DHT22;10589;53.636;10.012;2023-05-10T14:16:34;18.00;99.90
20858;DHT22;10589;53.636;10.012;2023-05-10T14:19:00;17.90;99.90
20858;DHT22;10589;53.636;10.012;2023-05-10T14:21:26;17.90;99.90
20858;DHT22;10589;53.636;10.012;2023-05-10T14:23:53;17.70;99.90
20858;DHT22;10589;53.636;10.012;2023-05-10T14:26:19;17.50;99.90
20858;DHT22;10589;53.636;10.012;2023-05-10T14:28:46;17.70;99.90
20858;DHT22;10589;53.636;10.012;2023-05-10T14:31:11;17.60;99.90
20858;DHT22;10589;53.636;10.012;2023-05-10T14:33:37;17.70;99.90
20858;DHT22;10589;53.636;10.012;2023-05-10T14:36:03;17.60;99.90
20858;DHT22;10589;53.636;10.012;2023-05-10T14:38:29;17.90;99.90
20858;DHT22;10589;53.636;10.012;2023-05-10T14:40:55;17.90;99.90
20858;DHT22;10589;53.636;10.012;2023-05-10T14:43:20;18.00;99.90
20858;DHT22;10589;53.636;10.012;2023-05-10T14:45:46;18.20;99.90
20858;DHT22;10589;53.636;10.012;2023-05-10T14:48:12;18.20;99.90
20858;DHT22;10589;53.636;10.012;2023-05-10T14:50:41;18.30;99.90
20858;DHT22;10589;53.636;10.012;2023-05-10T14:53:06;18.00;99.90
20858;DHT22;10589;53.636;10.012;2023-05-10T14:55:32;17.70;99.90
20858;DHT22;10589;53.636;10.012;2023-05-10T14:57:58;17.60;99.90
20858;DHT22;10589;53.636;10.012;2023-05-10T15:00:23;17.80;99.90
20858;DHT22;10589;53.636;10.012;2023-05-10T15:02:49;17.90;99.90
20858;DHT22;10589;53.636;10.012;2023-05-10T15:05:15;18.20;99.90
20858;DHT22;10589;53.636;10.012;2023-05-10T15:07:41;18.30;99.90
20858;DHT22;10589;53.636;10.012;2023-05-10T15:10:09;18.50;99.90
20858;DHT22;10589;53.636;10.012;2023-05-10T15:12:35;18.50;99.90
20858;DHT22;10589;53.636;10.012;2023-05-10T15:15:01;18.50;99.90
20858;DHT22;10589;53.636;10.012;2023-05-10T15:17:26;18.50;99.90
20858;DHT22;10589;53.636;10.012;2023-05-10T15:19:52;18.50;99.90
20858;DHT22;10589;53.636;10.012;2023-05-10T15:22:17;18.60;99.90
20858;DHT22;10589;53.636;10.012;2023-05-10T15:24:43;18.50;99.90
20858;DHT22;10589;53.636;10.012;2023-05-10T15:27:08;18.60;99.90
20858;DHT22;10589;53.636;10.012;2023-05-10T15:29:34;18.80;99.90
20858;DHT22;10589;53.636;10.012;2023-05-10T15:32:01;18.80;99.90
20858;DHT22;10589;53.636;10.012;2023-05-10T15:34:27;18.80;99.90
20858;DHT22;10589;53.636;10.012;2023-05-10T15:36:53;18.40;99.90
20858;DHT22;10589;53.636;10.012;2023-05-10T15:39:18;18.60;99.90
20858;DHT22;10589;53.636;10.012;2023-05-10T15:41:44;18.20;99.90
20858;DHT22;10589;53.636;10.012;2023-05-10T15:44:10;18.30;99.90
20858;DHT22;10589;53.636;10.012;2023-05-10T15:46:36;18.30;99.90
20858;DHT22;10589;53.636;10.012;2023-05-10T15:49:03;18.40;99.90
20858;DHT22;10589;53.636;10.012;2023-05-10T15:51:28;18.20;99.90
20858;DHT22;10589;53.636;10.012;2023-05-10T15:53:54;18.20;99.90
20858;DHT22;10589;53.636;10.012;2023-05-10T15:56:20;18.20;99.90
20858;DHT22;10589;53.636;10.012;2023-05-10T15:58:46;18.00;99.90
20858;DHT22;10589;53.636;10.012;2023-05-10T16:01:12;17.90;99.90
20858;DHT22;10589;53.636;10.012;2023-05-10T16:03:37;17.70;99.90
20858;DHT22;10589;53.636;10.012;2023-05-10T16:06:03;17.50;99.90
20858;DHT22;10589;53.636;10.012;2023-05-10T16:08:29;17.40;99.90
20858;DHT22;10589;53.636;10.012;2023-05-10T16:10:55;17.30;99.90
20858;DHT22;10589;53.636;10.012;2023-05-10T16:13:21;17.10;99.90
20858;DHT22;10589;53.636;10.012;2023-05-10T16:15:47;17.00;99.90
20858;DHT22;10589;53.636;10.012;2023-05-10T16:18:12;16.80;99.90
20858;DHT22;10589;53.636;10.012;2023-05-10T16:20:38;16.90;99.90
20858;DHT22;10589;53.636;10.012;2023-05-10T16:23:05;16.80;99.90
20858;DHT22;10589;53.636;10.012;2023-05-10T16:25:32;16.50;99.90
20858;DHT22;10589;53.636;10.012;2023-05-10T16:27:58;16.10;99.90
20858;DHT22;10589;53.636;10.012;2023-05-10T16:30:24;15.80;99.90
20858;DHT22;10589;53.636;10.012;2023-05-10T16:32:52;15.60;99.90
20858;DHT22;10589;53.636;10.012;2023-05-10T16:35:17;15.50;99.90
20858;DHT22;10589;53.636;10.012;2023-05-10T16:37:43;15.40;99.90
20858;DHT22;10589;53.636;10.012;2023-05-10T16:40:10;15.20;99.90
20858;DHT22;10589;53.636;10.012;2023-05-10T16:42:36;15.10;99.90
20858;DHT22;10589;53.636;10.012;2023-05-10T16:45:02;15.10;99.90
20858;DHT22;10589;53.636;10.012;2023-05-10T16:47:36;15.00;99.90
20858;DHT22;10589;53.636;10.012;2023-05-10T16:50:03;14.90;99.90
20858;DHT22;10589;53.636;10.012;2023-05-10T16:52:30;15.00;99.90
20858;DHT22;10589;53.636;10.012;2023-05-10T16:54:57;15.00;99.90
20858;DHT22;10589;53.636;10.012;2023-05-10T16:57:24;14.90;99.90
20858;DHT22;10589;53.636;10.012;2023-05-10T16:59:49;15.00;99.90
20858;DHT22;10589;53.636;10.012;2023-05-10T17:02:21;15.00;99.90
20858;DHT22;10589;53.636;10.012;2023-05-10T17:04:47;15.10;99.90
20858;DHT22;10589;53.636;10.012;2023-05-10T17:07:13;15.20;99.90
20858;DHT22;10589;53.636;10.012;2023-05-10T17:09:41;15.20;99.90
20858;DHT22;10589;53.636;10.012;2023-05-10T17:12:07;15.20;99.90
20858;DHT22;10589;53.636;10.012;2023-05-10T17:14:33;15.30;99.90
20858;DHT22;10589;53.636;10.012;2023-05-10T17:16:59;15.20;99.90
20858;DHT22;10589;53.636;10.012;2023-05-10T17:19:24;15.30;99.90
20858;DHT22;10589;53.636;10.012;2023-05-10T17:21:50;15.20;99.90
20858;DHT22;10589;53.636;10.012;2023-05-10T17:24:16;15.30;99.90
20858;DHT22;10589;53.636;10.012;2023-05-10T17:26:41;15.30;99.90
20858;DHT22;10589;53.636;10.012;2023-05-10T17:29:07;15.30;99.90
20858;DHT22;10589;53.636;10.012;2023-05-10T17:31:33;15.30;99.90
20858;DHT22;10589;53.636;10.012;2023-05-10T17:33:59;15.40;99.90
20858;DHT22;10589;53.636;10.012;2023-05-10T17:36:24;15.40;99.90
20858;DHT22;10589;53.636;10.012;2023-05-10T17:38:50;15.30;99.90
20858;DHT22;10589;53.636;10.012;2023-05-10T17:41:17;15.20;99.90
20858;DHT22;10589;53.636;10.012;2023-05-10T17:43:42;15.20;99.90
20858;DHT22;10589;53.636;10.012;2023-05-10T17:46:09;15.30;99.90
20858;DHT22;10589;53.636;10.012;2023-05-10T17:48:34;15.20;99.90
20858;DHT22;10589;53.636;10.012;2023-05-10T17:51:02;15.40;99.90
20858;DHT22;10589;53.636;10.012;2023-05-10T17:53:28;15.30;99.90
20858;DHT22;10589;53.636;10.012;2023-05-10T17:55:53;15.30;99.90
20858;DHT22;10589;53.636;10.012;2023-05-10T17:58:23;15.20;99.90
20858;DHT22;10589;53.636;10.012;2023-05-10T18:00:53;15.10;99.90
20858;DHT22;10589;53.636;10.012;2023-05-10T18:03:19;15.00;99.90
20858;DHT22;10589;53.636;10.012;2023-05-10T18:05:46;14.70;99.90
20858;DHT22;10589;53.636;10.012;2023-05-10T18:08:12;14.60;99.90
20858;DHT22;10589;53.636;10.012;2023-05-10T18:10:38;14.40;99.90
20858;DHT22;10589;53.636;10.012;2023-05-10T18:13:04;14.30;99.90
20858;DHT22;10589;53.636;10.012;2023-05-10T18:15:33;14.30;99.90
20858;DHT22;10589;53.636;10.012;2023-05-10T18:18:02;14.30;99.90
20858;DHT22;10589;53.636;10.012;2023-05-10T18:20:28;14.20;99.90
20858;DHT22;10589;53.636;10.012;2023-05-10T18:22:54;14.10;99.90
20858;DHT22;10589;53.636;10.012;2023-05-10T18:25:20;14.00;99.90
20858;DHT22;10589;53.636;10.012;2023-05-10T18:27:46;14.00;99.90
20858;DHT22;10589;53.636;10.012;2023-05-10T18:30:13;13.90;99.90
20858;DHT22;10589;53.636;10.012;2023-05-10T18:32:38;13.80;99.90
20858;DHT22;10589;53.636;10.012;2023-05-10T18:35:05;13.80;99.90
20858;DHT22;10589;53.636;10.012;2023-05-10T18:37:31;13.70;99.90
20858;DHT22;10589;53.636;10.012;2023-05-10T18:39:57;13.70;99.90
20858;DHT22;10589;53.636;10.012;2023-05-10T18:42:23;13.70;99.90
20858;DHT22;10589;53.636;10.012;2023-05-10T18:44:49;13.70;99.90
20858;DHT22;10589;53.636;10.012;2023-05-10T18:47:15;13.70;99.90
20858;DHT22;10589;53.636;10.012;2023-05-10T18:49:40;13.60;99.90
20858;DHT22;10589;53.636;10.012;2023-05-10T18:52:06;13.50;99.90
20858;DHT22;10589;53.636;10.012;2023-05-10T18:54:32;13.50;99.90
20858;DHT22;10589;53.636;10.012;2023-05-10T18:56:57;13.50;99.90
20858;DHT22;10589;53.636;10.012;2023-05-10T18:59:23;13.40;99.90
20858;DHT22;10589;53.636;10.012;2023-05-10T19:01:49;13.30;99.90
20858;DHT22;10589;53.636;10.012;2023-05-10T19:04:15;13.30;99.90
20858;DHT22;10589;53.636;10.012;2023-05-10T19:06:40;13.40;99.90
20858;DHT22;10589;53.636;10.012;2023-05-10T19:09:06;13.30;99.90
20858;DHT22;10589;53.636;10.012;2023-05-10T19:11:33;13.30;99.90
20858;DHT22;10589;53.636;10.012;2023-05-10T19:13:59;13.20;99.90
20858;DHT22;10589;53.636;10.012;2023-05-10T19:16:25;13.20;99.90